Main page
METAR-TAF:

METAR-TAF

Airports :

Victoria Inner Harbour Airport

Victoria Harbour, British Columbia, Canada

latitude: 48-25N, longitude: 123-20W, elevation: 5 m

Current weather observation

The report was made 42 minutes ago, at 22:00 UTC
Wind 4 kt from the South/Southwest, varying between Southeast and West
Temperature 21°C
Humidity 64%
Pressure 1014 hPa
Visibility: 24.1 km
Broken clouds at a height of 16000 ft
Broken clouds at a height of 22000 ft

METAR: CYWH 172200Z 20004KT 140V280 15SM BKN160 BKN220 21/14 A2995 RMK AC6CI1 SLP144 DENSITY ALT 700FT

Time: 15:42 (22:42 UTC)

Forecast

The report was made 2 hours and 2 minutes ago, at 20:40 UTC
Forecast valid from 17 at 21 UTC to 18 at 04 UTC
Wind 4 kt from the West/Southwest
Visibility: 10 km
Scattered clouds at a height of 18000 ft
Broken clouds at a height of 22000 ft
Becoming
from 17 at 21 UTC to 17 at 23 UTC
Wind 12 kt from the West/Southwest

TAF: CYWH 172040Z 1721/1804 24004KT P6SM SCT180 BKN220 BECMG 1721/1723 24012KT RMK NXT FCST BY 181400Z

Weather observations and forecasts of more than 4000 airports (METAR and TAF reports).

The available stations are represented by yellow and red dots on the map.

Hover mouse over dot to see the name of the station.

Then click to see weather observations and forecasts.

To change the map : click on the green buttons with a black cross to zoom in, on the green button with a dash to zoom out, or on the green arrows for adjacent maps.


METAR-TAF: